Hauptseite
METAR-TAF:

METAR-TAF

Flughäfen :

Aigen im Ennstal, Österreich

Breite: 47-32N, Länge: 014-08E, Höhe: 638 m

METAR: fehlend

Zeit: 15:51 (14:51 UTC)

Prognose

Neuester Wetterbericht von vor 6 Stunden und 36 Minuten, um 08:15 UTC
Gültige Prognose vom 24 um 09 UTC bis 24 um 18 UTC
Wind 3 kt aus unterschiedlichen Richtungen
Sichtweite: 0200 m
in der Höhe von 200 ft
Gefrierender Nebel
Übergehend zu
vom 24 um 11 UTC bis 24 um 13 UTC
Sichtweite 10 km oder mehr
Leicht bewölkt in der Höhe von 500 ft
Aufgelockert bewölkt in der Höhe von 27000 ft

TAF: LOXA 240815Z 2409/2418 VRB03KT 0200 FZFG VV002 BECMG 2411/2413 9999 NSW FEW005 SCT270

Wetterbeobachtungen und Prognosen von mehr als 4000 Flughäfen (METAR und TAF Bericht).

Die verfügbaren Stationen werden durch gelbe und rote Markierungen auf der Karte dargestellt.

Führen Sie die Maus auf sie, um den Namen der Station zu sehen.

Darauf klicken, um die Beobachtung von Wetterbeobachtungen und Prognosen zu sehen.

Um die Karte zu ändern : klicken Sie auf den grünen Tasten mit einem schwarzen Kreuz Zum Vergrößern, auf den grünen Button mit einem Gedankenstrich zu verkleinern, oder auf die grünen Pfeile für benachbarte Karten.


METAR-TAF: